หน้าหลัก
METAR-TAF:

METAR-TAF

ท่าอากาศยาน :

แท่นขุดเจาะน้ำมัน

F3-fb-1, เนเธอร์แลนด์

ละติจูด: 54-51-14N, ลองจิจูด: 4-41-36E, ความสูง: 33 ม.

การสังเกตสภาพอากาศปัจจุบัน

รายงานได้ทำขึ้นเมื่อ 23 นาทีที่แล้ว ณ เวลา 23:55 UTC
ลม 23 นอตจากตะวันออกเฉียงใต้
อุณหภูมิ 19°C
ความชื้น 83%
ความกดอากาศ 1014 hPa
ทัศนวิสัย 10 กม. หรือมากกว่า

METAR: EHFD 192355Z AUTO 13023KT 9999 NCD 19/16 Q1014

เวลา: 02:18 (00:18 UTC)


TAF: หายไป

สังเกตการณ์สภาพอากาศและพยากรณ์อากาศของสนามบินมากกว่า 4000 แห่ง (รายงาน METAR และ TAF).

สถานีที่ดูได้จะแสดงไว้ด้วยจุดสีเหลืองและสีแดงบนแผนที่.

เลื่อนเมาส์ไปเหนือจุดเพื่อดูชื่อสถานี.

แล้วคลิกเพื่อดูสังเกตการณ์และการพยากรณ์สภาพอากาศ.

ในการเปลี่ยนแผนที่: คลิกที่ปุ่มสีเขียวที่มีกากบาทสีดำเพื่อซูมเข้า; ที่ปุ่มสีเขียวที่มีขีดเพื่อซูมออก; หรือที่ลูกศรสีเขียวเพื่อไปยังแผนที่ที่อยู่ติดกัน.


METAR-TAF: